sensor_id;sensor_type;location;lat;lon;timestamp;pressure;altitude;pressure_sealevel;temperature;humidity
5877;BME280;2964;42.144;24.730;2023-07-31T00:01:33;147766.41;;;25.01;51.41
5877;BME280;2964;42.144;24.730;2023-07-31T00:04:00;147718.19;;;24.81;51.70
5877;BME280;2964;42.144;24.730;2023-07-31T00:06:27;147763.88;;;25.00;51.29
5877;BME280;2964;42.144;24.730;2023-07-31T00:08:53;147767.72;;;25.01;51.41
5877;BME280;2964;42.144;24.730;2023-07-31T00:11:20;147786.75;;;25.09;51.32
5877;BME280;2964;42.144;24.730;2023-07-31T00:13:47;147788.00;;;25.10;51.18
5877;BME280;2964;42.144;24.730;2023-07-31T00:16:15;147791.81;;;25.11;51.03
5877;BME280;2964;42.144;24.730;2023-07-31T00:18:41;147744.84;;;24.92;51.60
5877;BME280;2964;42.144;24.730;2023-07-31T00:21:08;147718.19;;;24.81;52.08
5877;BME280;2964;42.144;24.730;2023-07-31T00:23:35;147735.97;;;24.89;52.17
5877;BME280;2964;42.144;24.730;2023-07-31T00:26:01;147756.25;;;24.97;52.44
5877;BME280;2964;42.144;24.730;2023-07-31T00:28:28;147803.25;;;25.16;51.70
5877;BME280;2964;42.144;24.730;2023-07-31T00:30:55;147850.28;;;25.35;50.96
5877;BME280;2964;42.144;24.730;2023-07-31T00:33:23;147862.97;;;25.40;50.61
5877;BME280;2964;42.144;24.730;2023-07-31T00:35:49;147870.56;;;25.43;50.72
5877;BME280;2964;42.144;24.730;2023-07-31T00:38:16;147850.28;;;25.35;50.69
5877;BME280;2964;42.144;24.730;2023-07-31T00:40:42;147829.94;;;25.27;50.78
5877;BME280;2964;42.144;24.730;2023-07-31T00:43:09;147845.19;;;25.33;50.89
5877;BME280;2964;42.144;24.730;2023-07-31T00:45:36;147851.53;;;25.35;50.97
5877;BME280;2964;42.144;24.730;2023-07-31T00:48:03;147821.00;;;25.23;51.04
5877;BME280;2964;42.144;24.730;2023-07-31T00:50:33;147786.75;;;25.09;51.59
5877;BME280;2964;42.144;24.730;2023-07-31T00:52:59;147835.06;;;25.29;51.09
5877;BME280;2964;42.144;24.730;2023-07-31T00:55:26;147791.81;;;25.11;51.74
5877;BME280;2964;42.144;24.730;2023-07-31T00:57:53;147794.38;;;25.12;52.23
5877;BME280;2964;42.144;24.730;2023-07-31T01:00:21;147753.75;;;24.96;52.48
5877;BME280;2964;42.144;24.730;2023-07-31T01:02:48;147790.56;;;25.11;52.56
5877;BME280;2964;42.144;24.730;2023-07-31T01:05:15;147781.66;;;25.07;52.60
5877;BME280;2964;42.144;24.730;2023-07-31T01:07:49;147735.97;;;24.89;53.28
5877;BME280;2964;42.144;24.730;2023-07-31T01:10:21;147809.59;;;25.18;52.51
5877;BME280;2964;42.144;24.730;2023-07-31T01:12:50;147789.25;;;25.10;52.96
5877;BME280;2964;42.144;24.730;2023-07-31T01:15:17;147770.22;;;25.02;52.87
5877;BME280;2964;42.144;24.730;2023-07-31T01:17:44;147766.41;;;25.01;52.47
5877;BME280;2964;42.144;24.730;2023-07-31T01:20:12;147738.47;;;24.90;53.05
5877;BME280;2964;42.144;24.730;2023-07-31T01:26:02;147705.50;;;24.76;53.81
5877;BME280;2964;42.144;24.730;2023-07-31T01:28:35;147629.28;;;24.45;54.65
5877;BME280;2964;42.144;24.730;2023-07-31T01:31:07;147702.97;;;24.75;54.03
5877;BME280;2964;42.144;24.730;2023-07-31T01:33:37;147714.38;;;24.80;53.75
5877;BME280;2964;42.144;24.730;2023-07-31T01:36:05;147669.94;;;24.62;54.75
5877;BME280;2964;42.144;24.730;2023-07-31T01:38:32;147728.34;;;24.85;54.20
5877;BME280;2964;42.144;24.730;2023-07-31T01:41:00;147758.81;;;24.98;53.32
5877;BME280;2964;42.144;24.730;2023-07-31T01:43:26;147729.59;;;24.86;53.74
5877;BME280;2964;42.144;24.730;2023-07-31T01:45:53;147672.50;;;24.63;54.45
5877;BME280;2964;42.144;24.730;2023-07-31T01:48:20;147605.19;;;24.36;55.62
5877;BME280;2964;42.144;24.730;2023-07-31T01:50:47;147619.16;;;24.41;55.65
5877;BME280;2964;42.144;24.730;2023-07-31T01:53:13;147630.59;;;24.46;55.69
5877;BME280;2964;42.144;24.730;2023-07-31T01:55:40;147515.09;;;23.99;57.15
5877;BME280;2964;42.144;24.730;2023-07-31T01:58:08;147466.94;;;23.80;57.23
5877;BME280;2964;42.144;24.730;2023-07-31T02:00:34;147435.19;;;23.67;58.15
5877;BME280;2964;42.144;24.730;2023-07-31T02:03:01;147442.81;;;23.70;58.41
5877;BME280;2964;42.144;24.730;2023-07-31T02:05:28;147507.53;;;23.96;57.46
5877;BME280;2964;42.144;24.730;2023-07-31T02:07:54;147530.38;;;24.05;57.53
5877;BME280;2964;42.144;24.730;2023-07-31T02:10:21;147393.34;;;23.50;57.08
5877;BME280;2964;42.144;24.730;2023-07-31T02:12:48;147461.81;;;23.78;57.68
5877;BME280;2964;42.144;24.730;2023-07-31T02:15:16;147479.63;;;23.85;56.81
5877;BME280;2964;42.144;24.730;2023-07-31T02:17:42;147470.75;;;23.81;57.39
5877;BME280;2964;42.144;24.730;2023-07-31T02:20:10;147480.88;;;23.85;57.42
5877;BME280;2964;42.144;24.730;2023-07-31T02:22:36;147497.34;;;23.92;57.21
5877;BME280;2964;42.144;24.730;2023-07-31T02:25:04;147466.94;;;23.80;57.85
5877;BME280;2964;42.144;24.730;2023-07-31T02:27:30;147489.75;;;23.89;57.88
5877;BME280;2964;42.144;24.730;2023-07-31T02:29:57;147565.88;;;24.20;57.09
5877;BME280;2964;42.144;24.730;2023-07-31T02:32:26;147543.00;;;24.11;57.44
5877;BME280;2964;42.144;24.730;2023-07-31T02:34:52;147557.00;;;24.16;57.72
5877;BME280;2964;42.144;24.730;2023-07-31T02:37:19;147624.22;;;24.43;57.80
5877;BME280;2964;42.144;24.730;2023-07-31T02:39:45;147614.06;;;24.39;58.89
5877;BME280;2964;42.144;24.730;2023-07-31T02:42:12;147567.16;;;24.20;60.65
5877;BME280;2964;42.144;24.730;2023-07-31T02:44:39;147586.16;;;24.28;61.23
5877;BME280;2964;42.144;24.730;2023-07-31T02:47:06;147656.00;;;24.56;61.51
5877;BME280;2964;42.144;24.730;2023-07-31T02:49:34;147602.69;;;24.35;63.33
5877;BME280;2964;42.144;24.730;2023-07-31T02:52:00;147625.53;;;24.44;65.60
5877;BME280;2964;42.144;24.730;2023-07-31T02:54:27;147625.53;;;24.44;66.15
5877;BME280;2964;42.144;24.730;2023-07-31T02:56:54;147631.84;;;24.46;67.35
5877;BME280;2964;42.144;24.730;2023-07-31T02:59:20;147647.09;;;24.53;67.67
5877;BME280;2964;42.144;24.730;2023-07-31T03:01:47;147621.72;;;24.42;68.64
5877;BME280;2964;42.144;24.730;2023-07-31T03:04:14;147686.47;;;24.69;67.96
5877;BME280;2964;42.144;24.730;2023-07-31T03:06:42;147671.25;;;24.62;69.08
5877;BME280;2964;42.144;24.730;2023-07-31T03:09:08;147713.13;;;24.79;68.62
5877;BME280;2964;42.144;24.730;2023-07-31T03:11:35;147629.28;;;24.45;68.91
5877;BME280;2964;42.144;24.730;2023-07-31T03:14:02;147704.25;;;24.76;70.29
5877;BME280;2964;42.144;24.730;2023-07-31T03:16:28;147709.31;;;24.78;71.41
5877;BME280;2964;42.144;24.730;2023-07-31T03:18:55;147595.06;;;24.32;77.33
5877;BME280;2964;42.144;24.730;2023-07-31T03:21:22;147620.41;;;24.42;80.50
5877;BME280;2964;42.144;24.730;2023-07-31T03:23:50;147392.03;;;23.49;89.32
5877;BME280;2964;42.144;24.730;2023-07-31T03:26:16;147281.72;;;23.05;96.01
5877;BME280;2964;42.144;24.730;2023-07-31T03:28:43;147373.00;;;23.42;95.07
5877;BME280;2964;42.144;24.730;2023-07-31T03:31:09;147378.09;;;23.44;95.54
5877;BME280;2964;42.144;24.730;2023-07-31T03:33:37;147361.63;;;23.37;97.19
5877;BME280;2964;42.144;24.730;2023-07-31T03:36:04;147252.53;;;22.93;100.00
5877;BME280;2964;42.144;24.730;2023-07-31T03:38:30;147251.25;;;22.92;100.00
5877;BME280;2964;42.144;24.730;2023-07-31T03:40:58;147225.91;;;22.82;100.00
5877;BME280;2964;42.144;24.730;2023-07-31T03:43:25;147185.34;;;22.66;100.00
5877;BME280;2964;42.144;24.730;2023-07-31T03:45:52;147037.03;;;22.06;100.00
5877;BME280;2964;42.144;24.730;2023-07-31T03:48:18;147162.53;;;22.57;100.00
5877;BME280;2964;42.144;24.730;2023-07-31T03:50:45;147109.31;;;22.35;100.00
5877;BME280;2964;42.144;24.730;2023-07-31T03:53:12;147123.25;;;22.41;100.00
5877;BME280;2964;42.144;24.730;2023-07-31T03:55:38;147028.16;;;22.02;100.00
5877;BME280;2964;42.144;24.730;2023-07-31T03:58:06;147119.47;;;22.39;100.00
5877;BME280;2964;42.144;24.730;2023-07-31T04:00:33;147106.78;;;22.34;100.00
5877;BME280;2964;42.144;24.730;2023-07-31T04:03:00;147066.19;;;22.17;100.00
5877;BME280;2964;42.144;24.730;2023-07-31T04:05:26;147089.06;;;22.27;100.00
5877;BME280;2964;42.144;24.730;2023-07-31T04:07:53;147105.50;;;22.33;100.00
5877;BME280;2964;42.144;24.730;2023-07-31T04:10:20;147105.50;;;22.33;100.00
5877;BME280;2964;42.144;24.730;2023-07-31T04:12:46;147070.00;;;22.19;100.00
5877;BME280;2964;42.144;24.730;2023-07-31T04:15:14;147048.47;;;22.10;100.00
5877;BME280;2964;42.144;24.730;2023-07-31T04:17:41;147019.34;;;21.98;100.00
5877;BME280;2964;42.144;24.730;2023-07-31T04:20:09;146973.75;;;21.80;100.00
5877;BME280;2964;42.144;24.730;2023-07-31T04:22:36;147001.59;;;21.91;100.00
5877;BME280;2964;42.144;24.730;2023-07-31T04:25:03;146962.31;;;21.75;100.00
5877;BME280;2964;42.144;24.730;2023-07-31T04:27:30;147007.91;;;21.94;100.00
5877;BME280;2964;42.144;24.730;2023-07-31T04:29:56;147012.97;;;21.96;100.00
5877;BME280;2964;42.144;24.730;2023-07-31T04:32:24;147037.03;;;22.06;100.00
5877;BME280;2964;42.144;24.730;2023-07-31T04:34:51;147059.84;;;22.15;100.00
5877;BME280;2964;42.144;24.730;2023-07-31T04:37:18;147071.25;;;22.20;100.00
5877;BME280;2964;42.144;24.730;2023-07-31T04:39:44;147077.59;;;22.22;100.00
5877;BME280;2964;42.144;24.730;2023-07-31T04:42:11;147066.19;;;22.17;100.00
5877;BME280;2964;42.144;24.730;2023-07-31T04:44:38;147082.66;;;22.24;100.00
5877;BME280;2964;42.144;24.730;2023-07-31T04:47:04;147068.72;;;22.18;100.00
5877;BME280;2964;42.144;24.730;2023-07-31T04:49:33;147038.34;;;22.06;100.00
5877;BME280;2964;42.144;24.730;2023-07-31T04:51:59;147031.97;;;22.04;100.00
5877;BME280;2964;42.144;24.730;2023-07-31T04:54:26;147045.91;;;22.09;100.00
5877;BME280;2964;42.144;24.730;2023-07-31T04:56:52;147077.59;;;22.22;100.00
5877;BME280;2964;42.144;24.730;2023-07-31T04:59:19;147091.56;;;22.28;100.00
5877;BME280;2964;42.144;24.730;2023-07-31T05:01:46;147104.25;;;22.33;100.00
5877;BME280;2964;42.144;24.730;2023-07-31T05:04:13;147096.69;;;22.30;100.00
5877;BME280;2964;42.144;24.730;2023-07-31T05:06:41;147170.16;;;22.60;100.00
5877;BME280;2964;42.144;24.730;2023-07-31T05:09:07;147194.22;;;22.69;100.00
5877;BME280;2964;42.144;24.730;2023-07-31T05:11:35;147232.25;;;22.85;100.00
5877;BME280;2964;42.144;24.730;2023-07-31T05:14:02;147258.88;;;22.96;100.00
5877;BME280;2964;42.144;24.730;2023-07-31T05:16:29;147314.69;;;23.18;100.00
5877;BME280;2964;42.144;24.730;2023-07-31T05:18:55;147307.09;;;23.15;100.00
5877;BME280;2964;42.144;24.730;2023-07-31T05:21:22;147271.56;;;23.01;100.00
5877;BME280;2964;42.144;24.730;2023-07-31T05:23:50;147267.75;;;22.99;100.00
5877;BME280;2964;42.144;24.730;2023-07-31T05:26:17;147321.06;;;23.21;100.00
5877;BME280;2964;42.144;24.730;2023-07-31T05:28:44;147277.88;;;23.03;100.00
5877;BME280;2964;42.144;24.730;2023-07-31T05:31:10;147357.81;;;23.36;99.14
5877;BME280;2964;42.144;24.730;2023-07-31T05:33:37;147430.09;;;23.65;96.77
5877;BME280;2964;42.144;24.730;2023-07-31T05:36:04;147489.75;;;23.89;95.78
5877;BME280;2964;42.144;24.730;2023-07-31T05:38:31;147539.25;;;24.09;96.07
5877;BME280;2964;42.144;24.730;2023-07-31T05:40:59;147573.47;;;24.23;94.27
5877;BME280;2964;42.144;24.730;2023-07-31T05:43:25;147591.25;;;24.30;93.80
5877;BME280;2964;42.144;24.730;2023-07-31T05:45:52;147647.09;;;24.53;93.54
5877;BME280;2964;42.144;24.730;2023-07-31T05:48:19;147625.53;;;24.44;93.78
5877;BME280;2964;42.144;24.730;2023-07-31T05:50:45;147667.44;;;24.61;92.02
5877;BME280;2964;42.144;24.730;2023-07-31T05:53:12;148137.38;;;26.51;88.24
5877;BME280;2964;42.144;24.730;2023-07-31T05:55:39;148432.34;;;27.70;79.55
5877;BME280;2964;42.144;24.730;2023-07-31T05:58:07;148628.25;;;28.49;77.27
5877;BME280;2964;42.144;24.730;2023-07-31T06:00:33;148933.81;;;29.72;74.84
5877;BME280;2964;42.144;24.730;2023-07-31T06:03:00;149300.78;;;31.20;70.69
5877;BME280;2964;42.144;24.730;2023-07-31T06:05:26;149402.78;;;31.61;63.41
5877;BME280;2964;42.144;24.730;2023-07-31T06:07:55;149415.53;;;31.66;64.21
5877;BME280;2964;42.144;24.730;2023-07-31T06:10:21;149336.47;;;31.34;63.15
5877;BME280;2964;42.144;24.730;2023-07-31T06:12:48;149377.31;;;31.51;63.18
5877;BME280;2964;42.144;24.730;2023-07-31T06:15:16;149654.03;;;32.62;61.38
5877;BME280;2964;42.144;24.730;2023-07-31T06:17:44;149730.59;;;32.93;58.77
5877;BME280;2964;42.144;24.730;2023-07-31T06:20:11;149708.88;;;32.84;59.74
5877;BME280;2964;42.144;24.730;2023-07-31T06:22:38;149796.94;;;33.20;58.45
5877;BME280;2964;42.144;24.730;2023-07-31T06:25:05;149814.81;;;33.27;57.36
5877;BME280;2964;42.144;24.730;2023-07-31T06:27:32;149816.13;;;33.27;56.59
5877;BME280;2964;42.144;24.730;2023-07-31T06:29:59;149833.94;;;33.35;56.00
5877;BME280;2964;42.144;24.730;2023-07-31T06:32:27;149953.97;;;33.83;55.42
5877;BME280;2964;42.144;24.730;2023-07-31T06:34:53;149872.25;;;33.50;55.40
5877;BME280;2964;42.144;24.730;2023-07-31T06:37:20;149931.00;;;33.74;56.08
5877;BME280;2964;42.144;24.730;2023-07-31T06:39:47;150107.19;;;34.45;53.73
5877;BME280;2964;42.144;24.730;2023-07-31T06:42:13;150211.94;;;34.87;50.72
5877;BME280;2964;42.144;24.730;2023-07-31T06:44:40;150099.50;;;34.41;52.29
5877;BME280;2964;42.144;24.730;2023-07-31T06:47:07;150071.41;;;34.30;52.65
5877;BME280;2964;42.144;24.730;2023-07-31T06:49:35;150128.88;;;34.53;52.53
5877;BME280;2964;42.144;24.730;2023-07-31T06:52:02;150107.19;;;34.45;50.90
5877;BME280;2964;42.144;24.730;2023-07-31T06:54:29;150279.63;;;35.14;51.81
5877;BME280;2964;42.144;24.730;2023-07-31T06:56:55;150283.41;;;35.15;51.16
5877;BME280;2964;42.144;24.730;2023-07-31T06:59:22;150311.59;;;35.27;49.47
5877;BME280;2964;42.144;24.730;2023-07-31T07:01:48;150397.16;;;35.61;51.27
5877;BME280;2964;42.144;24.730;2023-07-31T07:04:15;150571.00;;;36.31;45.89
5877;BME280;2964;42.144;24.730;2023-07-31T07:06:43;150323.06;;;35.31;49.93
5877;BME280;2964;42.144;24.730;2023-07-31T07:09:10;150510.91;;;36.07;47.11
5877;BME280;2964;42.144;24.730;2023-07-31T07:11:36;150265.56;;;35.08;50.90
5877;BME280;2964;42.144;24.730;2023-07-31T07:14:03;150257.91;;;35.05;49.60
5877;BME280;2964;42.144;24.730;2023-07-31T07:16:30;150606.81;;;36.45;46.04
5877;BME280;2964;42.144;24.730;2023-07-31T07:18:57;150468.75;;;35.90;46.96
5877;BME280;2964;42.144;24.730;2023-07-31T07:21:23;150452.13;;;35.83;48.37
5877;BME280;2964;42.144;24.730;2023-07-31T07:23:51;150438.09;;;35.78;47.50
5877;BME280;2964;42.144;24.730;2023-07-31T07:26:18;150496.84;;;36.01;47.72
5877;BME280;2964;42.144;24.730;2023-07-31T07:28:45;150627.25;;;36.53;46.46
5877;BME280;2964;42.144;24.730;2023-07-31T07:31:11;150737.22;;;36.98;45.07
5877;BME280;2964;42.144;24.730;2023-07-31T07:33:38;150608.06;;;36.46;45.19
5877;BME280;2964;42.144;24.730;2023-07-31T07:36:05;150854.91;;;37.45;45.87
5877;BME280;2964;42.144;24.730;2023-07-31T07:38:35;150753.84;;;37.04;46.08
5877;BME280;2964;42.144;24.730;2023-07-31T07:41:03;150810.13;;;37.27;43.68
5877;BME280;2964;42.144;24.730;2023-07-31T07:43:29;150403.56;;;35.64;45.31
5877;BME280;2964;42.144;24.730;2023-07-31T07:45:56;150232.34;;;34.95;48.38
5877;BME280;2964;42.144;24.730;2023-07-31T07:48:22;149999.91;;;34.01;50.82
5877;BME280;2964;42.144;24.730;2023-07-31T07:50:50;150224.72;;;34.92;47.83
5877;BME280;2964;42.144;24.730;2023-07-31T07:53:17;150572.28;;;36.31;46.66
5877;BME280;2964;42.144;24.730;2023-07-31T07:55:43;150743.63;;;37.00;44.83
5877;BME280;2964;42.144;24.730;2023-07-31T07:58:11;151089.06;;;38.39;41.69
5877;BME280;2964;42.144;24.730;2023-07-31T08:00:38;151136.44;;;38.58;40.78
5877;BME280;2964;42.144;24.730;2023-07-31T08:03:05;151475.75;;;39.94;38.55
5877;BME280;2964;42.144;24.730;2023-07-31T08:05:32;151661.44;;;40.68;37.78
5877;BME280;2964;42.144;24.730;2023-07-31T08:07:59;151701.22;;;40.84;35.01
5877;BME280;2964;42.144;24.730;2023-07-31T08:10:26;151298.97;;;39.23;37.28
5877;BME280;2964;42.144;24.730;2023-07-31T08:12:52;151359.22;;;39.47;36.12
5877;BME280;2964;42.144;24.730;2023-07-31T08:15:20;151624.31;;;40.53;33.13
5877;BME280;2964;42.144;24.730;2023-07-31T08:17:47;151812.69;;;41.29;32.41
5877;BME280;2964;42.144;24.730;2023-07-31T08:20:14;151776.78;;;41.15;31.33
5877;BME280;2964;42.144;24.730;2023-07-31T08:22:41;151872.91;;;41.53;31.15
5877;BME280;2964;42.144;24.730;2023-07-31T08:25:08;151391.19;;;39.60;33.21
5877;BME280;2964;42.144;24.730;2023-07-31T08:27:34;150865.13;;;37.49;37.81
5877;BME280;2964;42.144;24.730;2023-07-31T08:30:03;150381.84;;;35.55;41.50
5877;BME280;2964;42.144;24.730;2023-07-31T08:32:31;150445.75;;;35.81;41.94
5877;BME280;2964;42.144;24.730;2023-07-31T08:34:58;150677.13;;;36.74;38.99
5877;BME280;2964;42.144;24.730;2023-07-31T08:37:24;150633.66;;;36.56;39.76
5877;BME280;2964;42.144;24.730;2023-07-31T08:39:51;150619.59;;;36.50;41.10
5877;BME280;2964;42.144;24.730;2023-07-31T08:42:18;150961.09;;;37.88;39.11
5877;BME280;2964;42.144;24.730;2023-07-31T08:44:46;151351.47;;;39.44;36.09
5877;BME280;2964;42.144;24.730;2023-07-31T08:47:14;151171.00;;;38.72;35.89
5877;BME280;2964;42.144;24.730;2023-07-31T08:49:43;150958.50;;;37.86;37.25
5877;BME280;2964;42.144;24.730;2023-07-31T08:52:12;151030.22;;;38.15;35.86
5877;BME280;2964;42.144;24.730;2023-07-31T08:54:39;151050.66;;;38.23;35.96
5877;BME280;2964;42.144;24.730;2023-07-31T08:57:06;150851.06;;;37.43;38.58
5877;BME280;2964;42.144;24.730;2023-07-31T08:59:35;150187.69;;;34.77;42.85
5877;BME280;2964;42.144;24.730;2023-07-31T09:02:05;150705.25;;;36.85;39.51
5877;BME280;2964;42.144;24.730;2023-07-31T09:04:34;151017.41;;;38.10;36.78
5877;BME280;2964;42.144;24.730;2023-07-31T09:07:03;150930.38;;;37.75;36.37
5877;BME280;2964;42.144;24.730;2023-07-31T09:09:30;151258.06;;;39.07;34.30
5877;BME280;2964;42.144;24.730;2023-07-31T09:11:57;151630.75;;;40.56;32.64
5877;BME280;2964;42.144;24.730;2023-07-31T09:14:25;151539.78;;;40.20;31.27
5877;BME280;2964;42.144;24.730;2023-07-31T09:16:52;151894.72;;;41.62;29.03
5877;BME280;2964;42.144;24.730;2023-07-31T09:19:27;151902.47;;;41.65;29.86
5877;BME280;2964;42.144;24.730;2023-07-31T09:21:53;151956.25;;;41.86;30.28
5877;BME280;2964;42.144;24.730;2023-07-31T09:24:29;151993.41;;;42.01;29.33
5877;BME280;2964;42.144;24.730;2023-07-31T09:26:56;151275.94;;;39.14;31.69
5877;BME280;2964;42.144;24.730;2023-07-31T09:29:25;151060.94;;;38.28;33.73
5877;BME280;2964;42.144;24.730;2023-07-31T09:31:52;151109.50;;;38.47;35.09
5877;BME280;2964;42.144;24.730;2023-07-31T09:34:19;151327.16;;;39.34;33.60
5877;BME280;2964;42.144;24.730;2023-07-31T09:36:48;151183.75;;;38.77;32.75
5877;BME280;2964;42.144;24.730;2023-07-31T09:39:16;151387.38;;;39.59;31.12
5877;BME280;2964;42.144;24.730;2023-07-31T09:41:47;151329.72;;;39.35;29.90
5877;BME280;2964;42.144;24.730;2023-07-31T09:44:13;151391.19;;;39.60;31.38
5877;BME280;2964;42.144;24.730;2023-07-31T09:46:40;152001.13;;;42.04;28.91
5877;BME280;2964;42.144;24.730;2023-07-31T09:49:08;152119.16;;;42.52;26.91
5877;BME280;2964;42.144;24.730;2023-07-31T09:51:35;152080.59;;;42.36;26.47
5877;BME280;2964;42.144;24.730;2023-07-31T09:54:10;151944.75;;;41.82;27.85
5877;BME280;2964;42.144;24.730;2023-07-31T09:56:41;151691.00;;;40.80;28.47
5877;BME280;2964;42.144;24.730;2023-07-31T09:59:12;151249.09;;;39.03;31.05
5877;BME280;2964;42.144;24.730;2023-07-31T10:01:40;150953.41;;;37.84;33.26
5877;BME280;2964;42.144;24.730;2023-07-31T10:04:08;150664.34;;;36.68;35.58
5877;BME280;2964;42.144;24.730;2023-07-31T10:06:36;150521.13;;;36.11;36.88
5877;BME280;2964;42.144;24.730;2023-07-31T10:09:05;150656.66;;;36.65;38.79
5877;BME280;2964;42.144;24.730;2023-07-31T10:11:35;151034.06;;;38.17;33.55
5877;BME280;2964;42.144;24.730;2023-07-31T10:14:04;150958.50;;;37.86;33.71
5877;BME280;2964;42.144;24.730;2023-07-31T10:16:34;150817.84;;;37.30;35.30
5877;BME280;2964;42.144;24.730;2023-07-31T10:19:01;150447.03;;;35.81;38.20
5877;BME280;2964;42.144;24.730;2023-07-31T10:21:29;150374.16;;;35.52;38.43
5877;BME280;2964;42.144;24.730;2023-07-31T10:23:56;150280.88;;;35.14;40.39
5877;BME280;2964;42.144;24.730;2023-07-31T10:26:23;150214.44;;;34.88;39.37
5877;BME280;2964;42.144;24.730;2023-07-31T10:28:52;150072.72;;;34.31;40.07
5877;BME280;2964;42.144;24.730;2023-07-31T10:31:19;149932.28;;;33.74;42.15
5877;BME280;2964;42.144;24.730;2023-07-31T10:33:49;149802.09;;;33.22;43.96
5877;BME280;2964;42.144;24.730;2023-07-31T10:36:17;149874.78;;;33.51;43.68
5877;BME280;2964;42.144;24.730;2023-07-31T10:38:44;149848.00;;;33.40;44.64
5877;BME280;2964;42.144;24.730;2023-07-31T10:41:11;149785.47;;;33.15;44.09
5877;BME280;2964;42.144;24.730;2023-07-31T10:43:38;149742.03;;;32.98;43.57
5877;BME280;2964;42.144;24.730;2023-07-31T10:46:07;149659.13;;;32.64;43.80
5877;BME280;2964;42.144;24.730;2023-07-31T10:48:35;149642.59;;;32.58;44.93
5877;BME280;2964;42.144;24.730;2023-07-31T10:51:07;149599.16;;;32.40;43.33
5877;BME280;2964;42.144;24.730;2023-07-31T10:53:36;149596.63;;;32.39;45.16
5877;BME280;2964;42.144;24.730;2023-07-31T10:56:03;149674.47;;;32.70;44.49
5877;BME280;2964;42.144;24.730;2023-07-31T10:58:31;149611.91;;;32.45;42.06
5877;BME280;2964;42.144;24.730;2023-07-31T11:01:00;149581.31;;;32.33;43.59
5877;BME280;2964;42.144;24.730;2023-07-31T11:03:42;149489.47;;;31.96;44.10
5877;BME280;2964;42.144;24.730;2023-07-31T11:06:10;149548.16;;;32.20;44.21
5877;BME280;2964;42.144;24.730;2023-07-31T11:08:42;149636.13;;;32.55;44.30
5877;BME280;2964;42.144;24.730;2023-07-31T11:11:10;149515.03;;;32.06;42.97
5877;BME280;2964;42.144;24.730;2023-07-31T11:13:41;149563.44;;;32.26;44.00
5877;BME280;2964;42.144;24.730;2023-07-31T11:16:09;149619.59;;;32.48;44.11
5877;BME280;2964;42.144;24.730;2023-07-31T11:18:38;149387.50;;;31.55;49.35
5877;BME280;2964;42.144;24.730;2023-07-31T11:21:05;148954.22;;;29.80;54.50
5877;BME280;2964;42.144;24.730;2023-07-31T11:23:36;148949.13;;;29.78;56.13
5877;BME280;2964;42.144;24.730;2023-07-31T11:26:05;148837.06;;;29.33;57.33
5877;BME280;2964;42.144;24.730;2023-07-31T11:28:32;148742.81;;;28.95;58.35
5877;BME280;2964;42.144;24.730;2023-07-31T11:31:00;148718.66;;;28.85;59.50
5877;BME280;2964;42.144;24.730;2023-07-31T11:33:27;148758.13;;;29.01;58.39
5877;BME280;2964;42.144;24.730;2023-07-31T11:35:54;148795.06;;;29.16;57.74
5877;BME280;2964;42.144;24.730;2023-07-31T11:38:21;148842.16;;;29.35;57.25
5877;BME280;2964;42.144;24.730;2023-07-31T11:40:51;148834.50;;;29.32;55.51
5877;BME280;2964;42.144;24.730;2023-07-31T11:43:18;148852.34;;;29.39;56.29
5877;BME280;2964;42.144;24.730;2023-07-31T11:45:47;148848.50;;;29.38;55.00
5877;BME280;2964;42.144;24.730;2023-07-31T11:48:19;148844.69;;;29.36;55.81
5877;BME280;2964;42.144;24.730;2023-07-31T11:50:46;148847.25;;;29.37;55.78
5877;BME280;2964;42.144;24.730;2023-07-31T11:53:15;148893.06;;;29.56;55.54
5877;BME280;2964;42.144;24.730;2023-07-31T11:55:43;148888.00;;;29.54;54.78
5877;BME280;2964;42.144;24.730;2023-07-31T11:58:13;148838.34;;;29.34;55.08
5877;BME280;2964;42.144;24.730;2023-07-31T12:00:41;148913.47;;;29.64;54.37
5877;BME280;2964;42.144;24.730;2023-07-31T12:03:08;148896.91;;;29.57;55.12
5877;BME280;2964;42.144;24.730;2023-07-31T12:05:35;148888.00;;;29.54;54.81
5877;BME280;2964;42.144;24.730;2023-07-31T12:08:09;148816.69;;;29.25;55.90
5877;BME280;2964;42.144;24.730;2023-07-31T12:10:35;148898.16;;;29.58;55.23
5877;BME280;2964;42.144;24.730;2023-07-31T12:13:04;148890.56;;;29.55;55.18
5877;BME280;2964;42.144;24.730;2023-07-31T12:15:37;148912.16;;;29.63;54.38
5877;BME280;2964;42.144;24.730;2023-07-31T12:18:05;148926.16;;;29.69;54.32
5877;BME280;2964;42.144;24.730;2023-07-31T12:20:32;148945.28;;;29.77;54.37
5877;BME280;2964;42.144;24.730;2023-07-31T12:22:59;148933.81;;;29.72;53.90
5877;BME280;2964;42.144;24.730;2023-07-31T12:25:30;148947.88;;;29.78;54.10
5877;BME280;2964;42.144;24.730;2023-07-31T12:27:57;148949.13;;;29.78;52.03
5877;BME280;2964;42.144;24.730;2023-07-31T12:30:28;148910.91;;;29.63;52.43
5877;BME280;2964;42.144;24.730;2023-07-31T12:32:56;148982.25;;;29.92;52.51
5877;BME280;2964;42.144;24.730;2023-07-31T12:35:22;148998.78;;;29.98;52.05
5877;BME280;2964;42.144;24.730;2023-07-31T12:37:49;149015.38;;;30.05;49.80
5877;BME280;2964;42.144;24.730;2023-07-31T12:40:16;149047.19;;;30.18;50.03
5877;BME280;2964;42.144;24.730;2023-07-31T12:42:42;149066.28;;;30.26;48.02
5877;BME280;2964;42.144;24.730;2023-07-31T12:45:09;149099.44;;;30.39;45.69
5877;BME280;2964;42.144;24.730;2023-07-31T12:47:36;149085.44;;;30.33;45.95
5877;BME280;2964;42.144;24.730;2023-07-31T12:50:05;149102.00;;;30.40;47.14
5877;BME280;2964;42.144;24.730;2023-07-31T12:52:32;149114.72;;;30.45;46.87
5877;BME280;2964;42.144;24.730;2023-07-31T12:54:59;149042.09;;;30.16;46.78
5877;BME280;2964;42.144;24.730;2023-07-31T12:57:25;149048.47;;;30.18;45.25
5877;BME280;2964;42.144;24.730;2023-07-31T12:59:52;149089.28;;;30.35;46.24
5877;BME280;2964;42.144;24.730;2023-07-31T13:02:18;149109.63;;;30.43;46.51